Time;durP1;ratioP1;P1;durP2;ratioP2;P2;SDS_P1;SDS_P2;PMS_P1;PMS_P2;Temp;Humidity;BMP_temperature;BMP_pressure;BME280_temperature;BME280_humidity;BME280_pressure;Samples;Min_cycle;Max_cycle;Signal;HPM_P1;HPM_P2
2022/07/02 00:01:53;;;;;;;5.57;4.38;;;14.10;99.90;;;;;;5065247;28;20108;-68
2022/07/02 00:04:21;;;;;;;5.00;4.35;;;14.10;99.90;;;;;;5069153;28;20143;-68
2022/07/02 00:06:49;;;;;;;4.78;4.25;;;14.00;99.90;;;;;;5068612;28;20080;-69
2022/07/02 00:09:15;;;;;;;7.00;4.57;;;13.90;99.90;;;;;;5070172;28;21891;-69
2022/07/02 00:11:42;;;;;;;5.20;4.38;;;13.80;99.90;;;;;;5066349;28;20053;-68
2022/07/02 00:14:08;;;;;;;5.88;4.45;;;13.70;99.90;;;;;;5049587;28;20100;-68
2022/07/02 00:16:35;;;;;;;4.63;4.18;;;13.70;99.90;;;;;;5049958;28;20053;-69
2022/07/02 00:19:01;;;;;;;4.75;4.30;;;13.80;99.90;;;;;;5068353;28;20038;-69
2022/07/02 00:21:28;;;;;;;5.45;4.95;;;13.70;99.90;;;;;;5067638;28;20041;-68
2022/07/02 00:23:53;;;;;;;5.25;4.75;;;13.70;99.90;;;;;;5064734;28;20040;-69
2022/07/02 00:26:31;;;;;;;6.07;5.00;;;13.60;99.90;;;;;;5066217;28;20125;-69
2022/07/02 00:29:25;;;;;;;5.93;4.80;;;13.60;99.90;;;;;;5066999;28;20057;-69
2022/07/02 00:31:51;;;;;;;5.50;4.70;;;13.50;99.90;;;;;;5043042;28;20048;-69
2022/07/02 00:34:18;;;;;;;7.05;5.20;;;13.50;99.90;;;;;;5068168;28;20152;-69
2022/07/02 00:36:44;;;;;;;7.57;5.75;;;13.50;99.90;;;;;;5062048;28;20049;-69
2022/07/02 00:39:10;;;;;;;5.87;5.33;;;13.40;99.90;;;;;;5068271;28;20049;-69
2022/07/02 00:41:37;;;;;;;7.07;5.55;;;13.40;99.90;;;;;;5064830;28;20055;-69
2022/07/02 00:44:06;;;;;;;6.35;4.80;;;13.40;99.90;;;;;;5066171;28;20048;-69
2022/07/02 00:46:34;;;;;;;9.27;4.70;;;13.40;99.90;;;;;;5064068;28;20055;-69
2022/07/02 00:49:00;;;;;;;6.30;4.40;;;13.40;99.90;;;;;;5049110;28;20088;-69
2022/07/02 00:51:26;;;;;;;5.10;4.53;;;13.40;99.90;;;;;;5068355;28;20048;-69
2022/07/02 00:53:52;;;;;;;4.93;4.30;;;13.40;99.90;;;;;;5064163;28;20087;-69
2022/07/02 00:56:18;;;;;;;5.22;4.53;;;13.40;99.90;;;;;;5068070;28;20040;-70
2022/07/02 00:58:44;;;;;;;5.93;4.57;;;13.30;99.90;;;;;;5067646;28;20044;-69
2022/07/02 01:01:10;;;;;;;8.03;4.80;;;13.30;99.90;;;;;;5067085;28;20049;-69
2022/07/02 01:03:37;;;;;;;4.13;3.73;;;13.30;99.90;;;;;;5050184;28;20507;-68
2022/07/02 01:06:02;;;;;;;4.90;4.38;;;13.30;99.90;;;;;;5032399;28;20096;-69
2022/07/02 01:11:17;;;;;;;5.60;5.00;;;13.30;99.90;;;;;;5067071;28;20044;-68
2022/07/02 01:13:43;;;;;;;6.07;5.00;;;13.20;99.90;;;;;;5067230;28;20044;-69
2022/07/02 01:16:08;;;;;;;7.63;4.83;;;13.20;99.90;;;;;;5063937;28;20104;-68
2022/07/02 01:18:36;;;;;;;5.83;4.90;;;13.20;99.90;;;;;;5049079;28;20037;-69
2022/07/02 01:21:02;;;;;;;5.90;4.40;;;13.20;99.90;;;;;;5068860;28;20052;-68
2022/07/02 01:23:28;;;;;;;6.37;4.40;;;13.10;99.90;;;;;;5065758;28;20125;-69
2022/07/02 01:25:54;;;;;;;6.07;4.87;;;13.10;99.90;;;;;;5067634;28;20048;-69
2022/07/02 01:28:21;;;;;;;5.17;4.67;;;13.10;99.90;;;;;;5037604;28;20048;-69
2022/07/02 01:30:47;;;;;;;5.87;4.30;;;13.00;99.90;;;;;;5048385;28;20106;-68
2022/07/02 01:33:13;;;;;;;6.17;4.60;;;13.00;99.90;;;;;;5066273;28;21229;-69
2022/07/02 01:35:39;;;;;;;5.30;4.80;;;13.00;99.90;;;;;;5066085;28;20079;-69
2022/07/02 01:38:05;;;;;;;5.80;4.10;;;13.00;99.90;;;;;;5066609;28;20059;-70
2022/07/02 01:40:31;;;;;;;6.27;4.80;;;12.90;99.90;;;;;;5065770;28;20045;-69
2022/07/02 01:42:56;;;;;;;5.77;5.00;;;12.90;99.90;;;;;;5049425;28;20056;-69
2022/07/02 01:45:22;;;;;;;5.53;5.03;;;12.90;99.90;;;;;;5046340;28;20032;-68
2022/07/02 01:47:48;;;;;;;9.50;5.83;;;12.90;99.90;;;;;;5050097;28;20043;-69
2022/07/02 01:50:13;;;;;;;8.57;5.87;;;12.80;99.90;;;;;;5064715;28;20044;-68
2022/07/02 01:52:39;;;;;;;9.50;5.60;;;12.80;99.90;;;;;;5032440;28;20106;-69
2022/07/02 01:55:05;;;;;;;6.63;5.90;;;12.80;99.90;;;;;;5046502;28;20508;-69
2022/07/02 01:57:35;;;;;;;7.60;5.90;;;12.70;99.90;;;;;;5065309;28;20074;-69
2022/07/02 02:00:05;;;;;;;9.13;6.37;;;12.80;99.90;;;;;;5043743;28;20166;-69
2022/07/02 02:02:31;;;;;;;8.03;6.17;;;12.80;99.90;;;;;;5065194;28;20084;-69
2022/07/02 02:04:56;;;;;;;8.80;5.90;;;12.80;99.90;;;;;;5067042;28;20847;-68
2022/07/02 02:07:22;;;;;;;6.23;5.63;;;12.80;99.90;;;;;;5045872;28;20048;-69
2022/07/02 02:09:48;;;;;;;8.97;6.50;;;12.70;99.90;;;;;;5065602;28;20075;-68
2022/07/02 02:12:13;;;;;;;6.73;6.03;;;12.80;99.90;;;;;;5066037;28;20043;-68
2022/07/02 02:14:39;;;;;;;6.73;6.13;;;12.80;99.90;;;;;;5044838;28;20116;-69
2022/07/02 02:17:05;;;;;;;9.07;6.23;;;12.70;99.90;;;;;;5044783;28;20037;-69
2022/07/02 02:19:31;;;;;;;6.23;5.63;;;12.70;99.90;;;;;;5067977;28;20044;-69
2022/07/02 02:21:57;;;;;;;6.37;5.73;;;12.70;99.90;;;;;;5046305;28;20044;-69
2022/07/02 02:24:23;;;;;;;6.20;5.40;;;12.70;99.90;;;;;;5066505;28;20048;-69
2022/07/02 02:26:49;;;;;;;7.17;5.83;;;12.70;99.90;;;;;;5065037;28;20036;-69
2022/07/02 02:29:14;;;;;;;8.40;5.73;;;12.70;99.90;;;;;;5066960;28;20139;-69
2022/07/02 02:31:40;;;;;;;6.40;5.77;;;12.60;99.90;;;;;;5048423;28;20278;-69
2022/07/02 02:34:06;;;;;;;7.20;5.43;;;12.60;99.90;;;;;;5048287;28;20045;-69
2022/07/02 02:36:31;;;;;;;7.83;5.87;;;12.60;99.90;;;;;;5046855;28;20055;-69
2022/07/02 02:38:57;;;;;;;10.20;6.17;;;12.60;99.90;;;;;;5062350;28;20041;-69
2022/07/02 02:41:23;;;;;;;7.20;5.77;;;12.60;99.90;;;;;;5022674;28;20044;-69
2022/07/02 02:43:49;;;;;;;9.33;6.10;;;12.60;99.90;;;;;;5030603;28;20072;-69
2022/07/02 02:46:15;;;;;;;6.27;5.63;;;12.60;99.90;;;;;;5063255;28;20049;-69
2022/07/02 02:48:40;;;;;;;7.33;6.03;;;12.60;99.90;;;;;;5066050;28;20045;-69
2022/07/02 02:51:08;;;;;;;8.73;5.30;;;12.60;99.90;;;;;;5062618;28;20043;-69
2022/07/02 02:53:34;;;;;;;7.50;5.90;;;12.60;99.90;;;;;;5065685;28;20048;-69
2022/07/02 02:56:00;;;;;;;6.50;5.67;;;12.60;99.90;;;;;;5067769;28;20060;-69
2022/07/02 02:58:27;;;;;;;8.80;5.67;;;12.60;99.90;;;;;;5063299;28;20106;-68
2022/07/02 03:00:53;;;;;;;6.57;5.70;;;12.60;99.90;;;;;;5066204;28;20135;-69
2022/07/02 03:03:19;;;;;;;6.93;6.17;;;12.60;99.90;;;;;;5064981;28;21048;-69
2022/07/02 03:05:45;;;;;;;10.53;5.87;;;12.60;99.90;;;;;;5067916;28;20036;-69
2022/07/02 03:08:10;;;;;;;8.70;5.90;;;12.70;99.90;;;;;;5066501;28;20131;-68
2022/07/02 03:10:36;;;;;;;10.63;6.50;;;12.70;99.90;;;;;;5051970;28;20056;-69
2022/07/02 03:13:01;;;;;;;6.90;6.00;;;12.70;99.90;;;;;;5068729;28;20047;-69
2022/07/02 03:15:27;;;;;;;10.10;6.33;;;12.70;99.90;;;;;;5064010;28;20346;-68
2022/07/02 03:17:53;;;;;;;9.03;5.80;;;12.70;99.90;;;;;;5068595;28;20045;-68
2022/07/02 03:20:19;;;;;;;8.77;5.80;;;12.70;99.90;;;;;;5070152;28;20065;-68
2022/07/02 03:22:44;;;;;;;9.67;6.20;;;12.60;99.90;;;;;;5047707;28;20072;-68
2022/07/02 03:25:11;;;;;;;9.10;6.33;;;12.60;99.90;;;;;;5064978;28;20481;-68
2022/07/02 03:27:37;;;;;;;6.90;6.23;;;12.60;99.90;;;;;;5068491;28;20074;-68
2022/07/02 03:30:05;;;;;;;10.87;6.43;;;12.60;99.90;;;;;;5068688;28;20040;-68
2022/07/02 03:32:31;;;;;;;10.10;6.67;;;12.60;99.90;;;;;;5066350;28;20059;-68
2022/07/02 03:34:56;;;;;;;7.80;7.00;;;12.60;99.90;;;;;;5051501;28;20056;-68
2022/07/02 03:37:28;;;;;;;10.97;8.30;;;12.60;99.90;;;;;;5066997;28;20129;-69
2022/07/02 03:39:54;;;;;;;9.20;7.57;;;12.70;99.90;;;;;;5067973;28;20045;-68
2022/07/02 03:42:20;;;;;;;8.83;7.40;;;12.70;99.90;;;;;;5036136;28;20619;-68
2022/07/02 03:44:45;;;;;;;10.90;7.70;;;12.80;99.90;;;;;;5050011;28;20033;-69
2022/07/02 03:47:11;;;;;;;9.47;8.30;;;12.80;99.90;;;;;;5051917;28;20032;-68
2022/07/02 03:49:37;;;;;;;9.63;7.83;;;12.90;99.90;;;;;;5050268;28;20041;-69
2022/07/02 03:52:03;;;;;;;8.90;7.50;;;13.00;99.90;;;;;;5051375;28;20036;-69
2022/07/02 03:54:29;;;;;;;9.90;7.93;;;13.10;99.90;;;;;;5067336;28;20508;-68
2022/07/02 03:56:55;;;;;;;9.33;8.17;;;13.10;99.90;;;;;;5069267;28;20040;-69
2022/07/02 03:59:20;;;;;;;9.00;8.13;;;13.10;99.90;;;;;;5065952;28;20051;-69
2022/07/02 04:01:46;;;;;;;11.33;8.80;;;13.10;99.90;;;;;;5065359;28;20658;-68
2022/07/02 04:04:12;;;;;;;10.77;8.80;;;13.10;99.90;;;;;;5049300;28;20045;-68
2022/07/02 04:06:38;;;;;;;10.83;8.77;;;13.10;99.90;;;;;;5068434;28;20037;-70
2022/07/02 04:09:03;;;;;;;11.00;8.90;;;13.10;99.90;;;;;;5064803;28;20064;-69
2022/07/02 04:11:29;;;;;;;10.03;8.20;;;13.10;99.90;;;;;;5050386;28;20044;-69
2022/07/02 04:13:55;;;;;;;10.20;8.47;;;13.10;99.90;;;;;;5050961;28;20045;-68
2022/07/02 04:16:21;;;;;;;11.90;8.63;;;13.10;99.90;;;;;;5049013;28;20715;-68
2022/07/02 04:18:46;;;;;;;14.07;8.40;;;13.10;99.90;;;;;;5065818;28;20125;-68
2022/07/02 04:21:12;;;;;;;10.67;8.20;;;13.10;99.90;;;;;;5064040;28;20069;-69
2022/07/02 04:23:38;;;;;;;12.20;9.10;;;13.10;99.90;;;;;;5049825;28;20183;-69
2022/07/02 04:26:05;;;;;;;10.37;8.63;;;13.20;99.90;;;;;;5048456;28;20048;-68
2022/07/02 04:28:31;;;;;;;10.67;8.60;;;13.20;99.90;;;;;;5065462;28;20100;-69
2022/07/02 04:30:57;;;;;;;9.10;8.20;;;13.20;99.90;;;;;;5065133;28;20044;-68
2022/07/02 04:33:23;;;;;;;13.27;8.77;;;13.20;99.90;;;;;;5049955;28;20082;-68
2022/07/02 04:35:49;;;;;;;9.33;8.30;;;13.20;99.90;;;;;;5065712;28;20075;-70
2022/07/02 04:38:14;;;;;;;10.60;8.47;;;13.30;99.90;;;;;;5049230;28;20045;-69
2022/07/02 04:40:40;;;;;;;11.90;8.60;;;13.30;99.90;;;;;;5067898;28;20039;-68
2022/07/02 04:43:06;;;;;;;10.37;9.00;;;13.30;99.90;;;;;;5063293;28;20068;-69
2022/07/02 04:45:32;;;;;;;10.60;8.67;;;13.30;99.90;;;;;;5067773;28;20040;-68
2022/07/02 04:47:57;;;;;;;11.97;9.13;;;13.30;99.90;;;;;;5041634;28;20037;-69
2022/07/02 04:50:23;;;;;;;12.07;9.47;;;13.40;99.90;;;;;;5068086;28;20143;-69
2022/07/02 04:52:49;;;;;;;13.07;9.47;;;13.40;99.90;;;;;;5068025;28;20097;-68
2022/07/02 04:55:15;;;;;;;12.47;10.23;;;13.40;99.90;;;;;;5049392;28;20591;-68
2022/07/02 04:57:41;;;;;;;11.47;9.70;;;13.50;99.90;;;;;;5063657;28;20047;-69
2022/07/02 05:00:08;;;;;;;11.13;9.53;;;13.50;99.90;;;;;;5068616;28;20052;-69
2022/07/02 05:02:34;;;;;;;11.30;10.17;;;13.50;99.90;;;;;;5049021;28;20045;-69
2022/07/02 05:05:00;;;;;;;15.40;9.60;;;13.60;99.90;;;;;;5067034;28;20048;-69
2022/07/02 05:07:26;;;;;;;15.60;10.97;;;13.60;99.90;;;;;;5064027;28;20052;-69
2022/07/02 05:09:52;;;;;;;13.33;10.27;;;13.70;99.90;;;;;;5034143;28;20044;-70
2022/07/02 05:12:18;;;;;;;11.73;9.40;;;13.70;99.90;;;;;;5038877;28;20037;-69
2022/07/02 05:14:43;;;;;;;13.23;9.83;;;13.80;99.90;;;;;;5065554;28;20044;-69
2022/07/02 05:17:09;;;;;;;13.60;10.20;;;13.80;99.90;;;;;;5064099;28;20055;-68
2022/07/02 05:19:35;;;;;;;11.03;9.83;;;13.90;99.90;;;;;;5067698;28;20116;-68
2022/07/02 05:22:00;;;;;;;15.20;9.63;;;14.00;99.90;;;;;;5049952;28;20138;-69
2022/07/02 05:24:26;;;;;;;10.40;9.10;;;14.00;99.90;;;;;;5048468;28;20037;-69
2022/07/02 05:26:52;;;;;;;11.03;8.70;;;14.10;99.90;;;;;;5070083;28;20048;-69
2022/07/02 05:29:18;;;;;;;13.13;8.70;;;14.10;99.90;;;;;;5063216;28;20040;-69
2022/07/02 05:31:44;;;;;;;9.87;8.87;;;14.20;99.90;;;;;;5065112;28;20043;-69
2022/07/02 05:34:09;;;;;;;14.63;8.97;;;14.20;99.90;;;;;;5066769;28;20159;-68
2022/07/02 05:36:35;;;;;;;11.27;8.47;;;14.30;99.90;;;;;;5066330;28;20040;-68
2022/07/02 05:39:01;;;;;;;9.32;8.30;;;14.40;99.90;;;;;;5066046;28;20057;-69
2022/07/02 05:41:27;;;;;;;10.85;9.05;;;14.40;99.90;;;;;;5045381;28;20444;-68
2022/07/02 05:43:52;;;;;;;9.82;7.43;;;14.50;99.90;;;;;;5065088;28;20041;-69
2022/07/02 05:46:18;;;;;;;14.30;8.55;;;14.60;99.90;;;;;;5062616;28;20055;-69
2022/07/02 05:48:44;;;;;;;11.48;8.07;;;14.70;99.90;;;;;;5064622;28;20037;-69
2022/07/02 05:51:09;;;;;;;14.90;8.05;;;14.80;99.90;;;;;;5029809;28;20091;-69
2022/07/02 05:53:35;;;;;;;10.15;7.00;;;14.90;99.90;;;;;;5047434;28;20044;-69
2022/07/02 05:56:01;;;;;;;10.90;7.30;;;15.10;99.90;;;;;;5046709;28;20045;-72
2022/07/02 05:58:26;;;;;;;10.38;6.70;;;15.20;99.90;;;;;;5030359;28;20084;-70
2022/07/02 06:00:53;;;;;;;13.65;7.32;;;15.30;99.90;;;;;;5047515;28;20124;-71
2022/07/02 06:03:19;;;;;;;7.72;6.30;;;15.50;99.90;;;;;;5063585;28;20043;-69
2022/07/02 06:08:28;;;;;;;7.10;6.35;;;15.80;99.90;;;;;;5062678;28;20047;-69
2022/07/02 06:10:54;;;;;;;7.20;5.72;;;16.00;99.90;;;;;;5046518;28;20037;-68
2022/07/02 06:13:20;;;;;;;8.50;5.80;;;16.10;99.90;;;;;;5064045;28;20052;-69
2022/07/02 06:15:45;;;;;;;7.85;5.25;;;16.30;99.90;;;;;;5063717;28;20195;-71
2022/07/02 06:18:14;;;;;;;8.30;5.72;;;16.40;99.90;;;;;;5049094;28;20040;-70
2022/07/02 06:20:40;;;;;;;11.25;4.80;;;16.50;99.90;;;;;;5048602;28;20405;-71
2022/07/02 06:23:06;;;;;;;5.32;4.55;;;16.70;99.90;;;;;;5042698;28;20069;-71
2022/07/02 06:25:33;;;;;;;5.75;5.10;;;16.80;99.90;;;;;;5044705;28;20076;-71
2022/07/02 06:27:59;;;;;;;6.63;4.25;;;16.90;99.90;;;;;;5062660;28;20067;-71
2022/07/02 06:30:25;;;;;;;7.22;5.15;;;17.00;99.90;;;;;;5033383;28;20045;-71
2022/07/02 06:32:51;;;;;;;6.85;4.30;;;17.10;99.90;;;;;;5044586;28;20068;-71
2022/07/02 06:35:17;;;;;;;7.97;4.07;;;17.20;99.90;;;;;;5045787;28;20048;-71
2022/07/02 06:37:43;;;;;;;8.10;4.45;;;17.30;99.90;;;;;;5043872;28;20041;-71
2022/07/02 06:40:09;;;;;;;6.18;4.47;;;17.40;99.90;;;;;;5058660;28;20047;-71
2022/07/02 06:42:35;;;;;;;5.93;4.35;;;17.50;99.90;;;;;;5044749;28;20040;-71
2022/07/02 06:45:01;;;;;;;5.78;4.20;;;17.60;99.90;;;;;;5064840;28;20473;-70
2022/07/02 06:47:27;;;;;;;6.78;3.47;;;17.70;99.90;;;;;;5048373;28;20029;-70
2022/07/02 06:49:55;;;;;;;9.13;4.00;;;17.70;99.90;;;;;;5069427;28;20036;-73
2022/07/02 06:52:21;;;;;;;6.40;3.10;;;17.80;99.90;;;;;;5051484;28;20219;-71
2022/07/02 06:54:47;;;;;;;6.75;3.03;;;17.80;99.90;;;;;;5056252;28;20041;-70
2022/07/02 06:57:13;;;;;;;3.70;3.30;;;17.90;99.90;;;;;;5070539;28;20084;-70
2022/07/02 06:59:39;;;;;;;4.82;3.00;;;18.00;99.90;;;;;;5076557;28;20086;-71
2022/07/02 07:02:06;;;;;;;7.50;3.60;;;18.10;99.90;;;;;;5066307;28;20492;-71
2022/07/02 07:04:33;;;;;;;4.63;3.03;;;18.20;99.90;;;;;;5072247;28;20151;-71
2022/07/02 07:07:03;;;;;;;4.85;3.17;;;18.20;99.90;;;;;;5075264;28;20488;-70
2022/07/02 07:09:29;;;;;;;5.30;2.92;;;18.30;99.90;;;;;;5074026;28;20075;-71
2022/07/02 07:11:55;;;;;;;3.65;2.53;;;18.50;99.90;;;;;;5067160;28;20495;-71
2022/07/02 07:14:21;;;;;;;4.47;2.60;;;18.60;99.90;;;;;;5074667;28;20514;-71
2022/07/02 07:16:47;;;;;;;3.97;2.50;;;18.70;99.90;;;;;;5076043;28;20074;-71
2022/07/02 07:19:12;;;;;;;5.88;2.28;;;18.80;99.90;;;;;;5038851;28;20049;-71
2022/07/02 07:21:41;;;;;;;8.65;2.80;;;18.90;99.90;;;;;;5059459;28;20066;-71
2022/07/02 07:24:08;;;;;;;4.53;2.38;;;18.90;99.90;;;;;;5068421;28;20067;-71
2022/07/02 07:26:35;;;;;;;3.70;2.40;;;19.00;99.90;;;;;;5048247;28;20533;-71
2022/07/02 07:29:01;;;;;;;4.88;2.80;;;19.10;99.90;;;;;;5064693;28;20048;-70
2022/07/02 07:31:27;;;;;;;4.63;2.50;;;19.20;99.90;;;;;;5050399;28;20108;-71
2022/07/02 07:33:55;;;;;;;2.60;2.38;;;19.30;99.90;;;;;;5051454;28;20044;-71
2022/07/02 07:36:22;;;;;;;2.67;2.28;;;19.40;99.90;;;;;;5067567;28;20047;-71
2022/07/02 07:38:49;;;;;;;4.30;2.30;;;19.50;99.90;;;;;;5066379;28;20483;-71
2022/07/02 07:41:16;;;;;;;3.88;2.30;;;19.50;99.90;;;;;;5063852;28;20052;-70
2022/07/02 07:43:42;;;;;;;4.55;2.10;;;19.60;99.90;;;;;;5034831;28;20041;-71
2022/07/02 07:46:08;;;;;;;2.40;1.92;;;19.70;99.90;;;;;;5046928;28;20064;-71
2022/07/02 07:48:33;;;;;;;5.28;2.10;;;19.90;99.90;;;;;;5053794;28;20096;-71
2022/07/02 07:50:59;;;;;;;3.03;2.08;;;19.90;99.90;;;;;;5067995;28;20040;-71
2022/07/02 07:53:25;;;;;;;2.95;1.80;;;20.00;99.90;;;;;;5064165;28;20041;-71
2022/07/02 07:55:51;;;;;;;4.30;1.80;;;20.10;99.90;;;;;;5049056;28;20041;-71
2022/07/02 07:58:17;;;;;;;1.95;1.60;;;20.20;99.90;;;;;;5046868;28;20523;-70
2022/07/02 08:00:44;;;;;;;3.70;1.77;;;20.20;99.90;;;;;;5064804;28;20045;-71
2022/07/02 08:03:10;;;;;;;3.47;1.52;;;20.20;99.90;;;;;;5045178;28;20057;-71
2022/07/02 08:05:36;;;;;;;4.05;2.17;;;20.30;99.90;;;;;;5065025;28;20300;-71
2022/07/02 08:08:02;;;;;;;1.55;1.40;;;20.20;99.90;;;;;;5066468;28;20052;-71
2022/07/02 08:10:28;;;;;;;5.82;1.77;;;20.40;99.90;;;;;;5066697;28;20033;-71
2022/07/02 08:12:54;;;;;;;1.90;1.60;;;20.50;99.90;;;;;;5062960;28;20049;-71
2022/07/02 08:15:20;;;;;;;3.50;1.30;;;20.40;99.90;;;;;;5064800;28;20055;-71
2022/07/02 08:17:46;;;;;;;2.42;1.65;;;20.40;99.90;;;;;;5059853;28;20040;-70
2022/07/02 08:20:12;;;;;;;3.15;1.33;;;20.40;99.90;;;;;;5045474;28;20059;-78
2022/07/02 08:22:38;;;;;;;2.38;1.20;;;20.40;99.90;;;;;;5031676;28;20040;-77
2022/07/02 08:25:05;;;;;;;2.03;1.23;;;20.40;99.90;;;;;;5047096;28;20083;-78
2022/07/02 08:27:31;;;;;;;2.78;1.10;;;20.50;99.90;;;;;;5060368;28;20037;-78
2022/07/02 08:29:56;;;;;;;1.45;1.10;;;20.50;99.90;;;;;;5053007;28;20036;-78
2022/07/02 08:32:22;;;;;;;1.67;1.13;;;20.70;99.90;;;;;;5047281;28;20044;-78
2022/07/02 08:34:48;;;;;;;2.35;1.27;;;20.70;99.90;;;;;;5068429;28;20053;-77
2022/07/02 08:37:15;;;;;;;2.13;1.48;;;20.80;99.90;;;;;;5061214;28;20263;-77
2022/07/02 08:39:41;;;;;;;3.25;1.10;;;20.90;99.90;;;;;;5040693;28;20116;-78
2022/07/02 08:42:09;;;;;;;1.70;1.17;;;21.00;99.90;;;;;;5053538;28;20033;-78
2022/07/02 08:44:35;;;;;;;2.20;1.23;;;21.20;99.90;;;;;;5052873;28;20040;-78
2022/07/02 08:47:07;;;;;;;1.42;1.10;;;21.30;99.90;;;;;;5057603;28;20061;-78
2022/07/02 08:49:33;;;;;;;1.33;1.10;;;21.50;99.90;;;;;;5047950;28;20315;-78
2022/07/02 08:52:04;;;;;;;3.25;1.10;;;21.50;99.90;;;;;;5038147;28;20053;-78
2022/07/02 08:54:31;;;;;;;1.98;0.93;;;21.60;99.90;;;;;;5060795;28;20576;-78
2022/07/02 08:57:00;;;;;;;1.67;0.98;;;21.60;99.90;;;;;;5039163;28;20052;-78
2022/07/02 08:59:26;;;;;;;1.05;0.77;;;21.60;99.90;;;;;;5056160;28;20040;-78
2022/07/02 09:01:52;;;;;;;1.33;0.80;;;21.70;99.90;;;;;;5027441;28;20075;-78
2022/07/02 09:04:19;;;;;;;1.42;0.70;;;21.70;99.90;;;;;;5069275;28;20049;-78
2022/07/02 09:06:49;;;;;;;1.50;0.63;;;21.80;99.90;;;;;;5020801;28;20428;-79
2022/07/02 09:09:16;;;;;;;2.00;0.70;;;21.80;99.90;;;;;;5054546;28;20052;-79
2022/07/02 09:11:41;;;;;;;1.55;0.63;;;21.90;99.90;;;;;;5071933;28;20055;-78
2022/07/02 09:14:08;;;;;;;2.42;0.80;;;21.90;99.90;;;;;;5050899;28;20040;-78
2022/07/02 09:16:34;;;;;;;2.65;0.60;;;21.90;97.70;;;;;;5030883;28;20463;-79
2022/07/02 09:19:00;;;;;;;0.80;0.40;;;22.00;97.60;;;;;;5036912;28;20134;-79
2022/07/02 09:21:26;;;;;;;1.90;0.60;;;21.90;95.30;;;;;;5039017;28;20102;-78
2022/07/02 09:23:52;;;;;;;2.78;0.82;;;22.00;97.10;;;;;;5055392;28;20056;-78
2022/07/02 09:26:19;;;;;;;1.52;0.65;;;22.10;96.60;;;;;;5056488;28;20093;-78
2022/07/02 09:29:01;;;;;;;3.55;0.90;;;22.20;98.80;;;;;;5045772;28;20104;-78
2022/07/02 09:31:28;;;;;;;1.50;0.68;;;22.40;99.90;;;;;;5048195;28;20056;-78
2022/07/02 09:33:54;;;;;;;2.42;0.70;;;22.50;99.90;;;;;;5055250;28;20047;-79
2022/07/02 09:36:21;;;;;;;1.73;0.60;;;22.70;99.90;;;;;;5056279;28;20052;-79
2022/07/02 09:38:49;;;;;;;1.25;0.70;;;22.80;99.90;;;;;;5073525;28;20064;-78
2022/07/02 09:41:26;;;;;;;2.05;0.85;;;22.90;93.60;;;;;;5048086;28;20565;-78
2022/07/02 09:44:03;;;;;;;0.80;0.70;;;22.90;94.60;;;;;;5054108;28;20047;-78
2022/07/02 09:46:29;;;;;;;1.73;0.68;;;23.00;94.70;;;;;;5063914;28;20041;-80
2022/07/02 09:49:06;;;;;;;3.60;0.70;;;23.00;93.40;;;;;;5051311;28;20051;-78
2022/07/02 09:51:32;;;;;;;3.00;0.63;;;22.90;85.10;;;;;;5044745;28;20080;-79
2022/07/02 09:53:57;;;;;;;1.77;0.65;;;22.80;91.80;;;;;;5017933;28;20087;-78
2022/07/02 09:56:24;;;;;;;1.52;0.73;;;22.70;91.40;;;;;;5022211;28;20064;-78
2022/07/02 09:58:50;;;;;;;2.60;0.93;;;22.70;90.10;;;;;;5043643;28;20563;-79
2022/07/02 10:01:21;;;;;;;1.60;0.85;;;22.90;87.20;;;;;;5049050;28;20122;-78
2022/07/02 10:03:55;;;;;;;3.05;0.75;;;22.90;79.40;;;;;;5036686;28;20044;-79
2022/07/02 10:06:21;;;;;;;2.08;0.70;;;22.90;83.90;;;;;;5032960;28;20201;-78
2022/07/02 10:08:48;;;;;;;0.73;0.60;;;22.90;86.40;;;;;;5035754;28;20086;-78
2022/07/02 10:11:15;;;;;;;0.93;0.70;;;22.70;85.10;;;;;;5059035;28;20434;-78
2022/07/02 10:13:41;;;;;;;1.45;0.55;;;22.80;88.20;;;;;;5038797;28;20056;-78
2022/07/02 10:16:16;;;;;;;0.77;0.70;;;22.90;86.80;;;;;;5038207;28;20654;-78
2022/07/02 10:18:43;;;;;;;3.50;0.90;;;23.00;84.50;;;;;;5058035;28;20131;-77
2022/07/02 10:21:13;;;;;;;2.55;1.10;;;22.90;83.60;;;;;;5040864;28;20048;-78
2022/07/02 10:23:42;;;;;;;2.53;0.85;;;22.90;88.10;;;;;;5041038;28;20075;-78
2022/07/02 10:26:11;;;;;;;1.40;0.75;;;23.00;91.30;;;;;;5050114;28;20096;-78
2022/07/02 10:28:37;;;;;;;1.33;0.80;;;23.10;89.80;;;;;;5054157;28;20032;-78
2022/07/02 10:31:06;;;;;;;1.25;0.73;;;23.20;84.30;;;;;;5059051;28;20045;-78
2022/07/02 10:33:54;;;;;;;1.65;0.80;;;23.20;85.70;;;;;;5052671;28;20100;-77
2022/07/02 10:36:22;;;;;;;1.02;0.70;;;23.30;85.10;;;;;;5065268;28;20052;-77
2022/07/02 10:38:57;;;;;;;3.83;0.98;;;23.30;80.70;;;;;;5040303;28;20056;-77
2022/07/02 10:41:31;;;;;;;2.10;0.90;;;23.30;79.20;;;;;;5067917;28;20389;-78
2022/07/02 10:43:58;;;;;;;1.52;0.70;;;23.10;84.20;;;;;;5060093;28;20052;-78
2022/07/02 10:46:27;;;;;;;2.10;0.90;;;22.90;91.60;;;;;;5039057;28;20041;-78
2022/07/02 10:48:55;;;;;;;1.35;0.82;;;22.50;85.20;;;;;;5049890;28;20040;-78
2022/07/02 10:51:26;;;;;;;3.13;0.80;;;22.30;87.70;;;;;;5046741;28;20051;-77
2022/07/02 10:53:57;;;;;;;1.70;0.80;;;22.00;93.30;;;;;;5058080;28;20484;-78
2022/07/02 10:56:23;;;;;;;10.68;1.48;;;22.00;92.90;;;;;;5047854;28;20040;-78
2022/07/02 10:58:50;;;;;;;1.38;0.85;;;21.90;93.30;;;;;;5056030;28;20048;-78
2022/07/02 11:01:23;;;;;;;2.80;0.88;;;21.90;93.30;;;;;;5025586;28;20036;-77
2022/07/02 11:03:58;;;;;;;1.95;0.90;;;21.80;99.80;;;;;;5050733;28;20075;-78
2022/07/02 11:06:32;;;;;;;3.53;0.80;;;22.00;98.30;;;;;;5041259;28;20135;-77
2022/07/02 11:09:03;;;;;;;1.00;0.90;;;22.00;92.10;;;;;;5053308;28;20045;-78
2022/07/02 11:11:35;;;;;;;3.95;1.42;;;21.90;95.10;;;;;;5040207;28;20045;-78
2022/07/02 11:14:07;;;;;;;2.28;0.90;;;21.80;96.50;;;;;;5056872;28;20051;-79
2022/07/02 11:16:41;;;;;;;2.50;1.00;;;21.80;98.00;;;;;;5065267;28;20044;-79
2022/07/02 11:19:27;;;;;;;1.73;0.90;;;21.90;96.90;;;;;;5054764;28;20040;-79
2022/07/02 11:21:58;;;;;;;2.20;0.80;;;21.80;99.90;;;;;;5030989;28;20067;-78
2022/07/02 11:24:26;;;;;;;1.25;0.82;;;21.70;99.50;;;;;;5050116;28;20065;-79
2022/07/02 11:26:52;;;;;;;1.58;0.73;;;21.60;99.90;;;;;;5059554;28;20448;-80
2022/07/02 11:29:19;;;;;;;1.50;1.20;;;21.50;99.90;;;;;;5031740;28;20164;-79
2022/07/02 11:31:51;;;;;;;2.80;1.00;;;21.40;97.30;;;;;;5035018;28;20082;-80
2022/07/02 11:34:22;;;;;;;2.40;1.10;;;21.40;99.90;;;;;;5048286;28;20048;-79
2022/07/02 11:36:48;;;;;;;2.90;1.10;;;21.40;99.90;;;;;;5062815;28;20043;-80
2022/07/02 11:39:16;;;;;;;2.75;0.95;;;21.50;99.90;;;;;;5065730;28;20045;-79
2022/07/02 11:41:43;;;;;;;1.35;0.90;;;21.50;99.90;;;;;;5050232;28;20044;-79
2022/07/02 11:44:30;;;;;;;2.55;1.20;;;21.70;99.90;;;;;;5050379;28;20077;-80
2022/07/02 11:47:00;;;;;;;1.30;1.10;;;22.10;99.90;;;;;;5066280;28;20133;-79
2022/07/02 11:49:30;;;;;;;1.20;1.05;;;22.30;99.90;;;;;;5031336;28;20401;-78
2022/07/02 11:51:56;;;;;;;1.42;0.90;;;22.70;97.70;;;;;;5049750;28;20035;-78
2022/07/02 11:54:23;;;;;;;2.55;1.10;;;22.70;95.10;;;;;;5048740;28;20044;-78
2022/07/02 11:56:51;;;;;;;2.63;1.10;;;22.80;98.70;;;;;;5035057;28;20040;-84
2022/07/02 11:59:19;;;;;;;1.67;0.95;;;22.80;96.00;;;;;;5047146;28;20044;-79
2022/07/02 12:01:47;;;;;;;2.15;0.98;;;23.00;99.90;;;;;;5060162;28;20033;-79
2022/07/02 12:04:17;;;;;;;2.58;1.10;;;23.30;98.70;;;;;;5046105;28;20071;-79
2022/07/02 12:06:45;;;;;;;4.25;1.20;;;23.40;93.00;;;;;;5038424;28;20080;-78
2022/07/02 12:09:13;;;;;;;1.00;0.90;;;23.50;92.00;;;;;;5074605;28;20081;-78
2022/07/02 12:11:41;;;;;;;1.48;1.00;;;23.70;89.50;;;;;;5054350;28;20044;-78
2022/07/02 12:14:09;;;;;;;0.90;0.80;;;23.80;92.60;;;;;;5052622;28;20090;-79
2022/07/02 12:16:35;;;;;;;1.27;1.00;;;23.80;90.30;;;;;;5062970;28;20044;-78
2022/07/02 12:19:07;;;;;;;3.28;1.50;;;23.70;91.10;;;;;;5057718;28;20072;-78
2022/07/02 12:21:34;;;;;;;;;;;23.80;89.60;;;;;;5058994;28;20048;-78
2022/07/02 12:24:01;;;;;;;2.05;0.98;;;23.80;91.60;;;;;;5048709;28;20388;-79
2022/07/02 12:26:29;;;;;;;4.57;1.13;;;23.90;90.50;;;;;;5050112;28;20037;-78
2022/07/02 12:31:49;;;;;;;1.48;0.95;;;24.00;86.10;;;;;;5065838;28;20053;-78
2022/07/02 12:34:15;;;;;;;1.55;1.10;;;23.90;79.60;;;;;;5067560;28;20045;-79
2022/07/02 12:37:00;;;;;;;1.60;0.77;;;23.60;83.20;;;;;;5050109;28;20053;-79
2022/07/02 12:39:41;;;;;;;1.38;1.02;;;23.40;80.60;;;;;;5031047;28;20044;-78
2022/07/02 12:42:19;;;;;;;1.55;0.90;;;23.20;89.60;;;;;;5049754;28;20036;-78
2022/07/02 12:45:03;;;;;;;1.70;0.90;;;23.10;93.80;;;;;;5039539;28;20435;-79
2022/07/02 12:47:34;;;;;;;4.93;1.55;;;23.20;97.10;;;;;;5057930;28;20416;-78
2022/07/02 12:50:10;;;;;;;12.20;3.75;;;23.40;94.10;;;;;;5055814;28;20048;-79
2022/07/02 12:52:46;;;;;;;1.77;0.98;;;23.60;93.20;;;;;;5057484;28;20051;-79
2022/07/02 12:55:28;;;;;;;2.95;1.05;;;23.80;93.50;;;;;;5056189;28;20112;-79